createdAt,value
2023-01-03T00:00:01.435Z,1027.75
2023-01-03T00:10:00.980Z,1027.83
2023-01-03T00:20:01.365Z,1027.87
2023-01-03T00:30:02.227Z,1027.99
2023-01-03T00:40:01.269Z,1028.25
2023-01-03T00:50:01.440Z,1028.39
2023-01-03T01:00:01.278Z,1028.53
2023-01-03T01:10:01.394Z,1028.72
2023-01-03T01:20:01.179Z,1028.81
2023-01-03T01:30:01.495Z,1029.04
2023-01-03T01:40:01.048Z,1029.09
2023-01-03T01:50:01.154Z,1029.17
2023-01-03T02:00:01.214Z,1029.21
2023-01-03T02:10:01.663Z,1029.29
2023-01-03T02:20:01.171Z,1029.37
2023-01-03T02:30:01.029Z,1029.61
2023-01-03T02:40:01.070Z,1029.67
2023-01-03T02:50:01.172Z,1029.77
2023-01-03T03:00:03.270Z,1029.84
2023-01-03T03:10:01.282Z,1030.05
2023-01-03T03:20:06.148Z,1030.10
2023-01-03T03:30:01.222Z,1030.12
2023-01-03T03:50:01.199Z,1030.33
2023-01-03T04:10:01.972Z,1030.64
2023-01-03T04:20:02.842Z,1030.84
2023-01-03T04:30:02.090Z,1030.93
2023-01-03T04:40:01.124Z,1031.12
2023-01-03T04:50:00.966Z,1031.29
2023-01-03T05:00:01.110Z,1031.35
2023-01-03T05:10:01.287Z,1031.49
2023-01-03T05:20:01.069Z,1031.59
2023-01-03T05:30:01.046Z,1031.69
2023-01-03T05:40:01.040Z,1031.68
2023-01-03T05:50:01.179Z,1031.90
2023-01-03T06:00:01.551Z,1031.95
2023-01-03T06:10:01.217Z,1032.07
2023-01-03T06:20:01.277Z,1032.07
2023-01-03T06:30:01.019Z,1032.21
2023-01-03T06:40:01.313Z,1032.32
2023-01-03T06:50:00.957Z,1032.36
2023-01-03T07:00:01.270Z,1032.58
2023-01-03T07:10:01.277Z,1032.72
2023-01-03T07:20:01.061Z,1032.86
2023-01-03T07:30:01.019Z,1032.98
2023-01-03T07:50:00.245Z,1033.11
2023-01-03T08:00:01.074Z,1033.15
2023-01-03T08:10:01.326Z,1033.28
2023-01-03T08:20:01.326Z,1033.48
2023-01-03T08:30:01.910Z,1033.57
2023-01-03T08:40:01.053Z,1033.56
2023-01-03T08:50:01.068Z,1033.61
2023-01-03T09:00:01.786Z,1033.65
2023-01-03T09:10:01.068Z,1033.71
2023-01-03T09:20:01.035Z,1033.81
2023-01-03T09:30:00.942Z,1033.84
2023-01-03T09:40:03.435Z,1033.84
2023-01-03T10:00:03.333Z,1033.81
2023-01-03T10:10:00.224Z,1033.76
2023-01-03T10:20:03.086Z,1033.82
2023-01-03T10:30:01.338Z,1033.72
2023-01-03T10:40:01.542Z,1033.86
2023-01-03T10:50:01.905Z,1033.76
2023-01-03T11:00:02.717Z,1033.83
2023-01-03T11:10:00.982Z,1033.84
2023-01-03T11:20:02.337Z,1033.72
2023-01-03T11:30:01.315Z,1033.65
2023-01-03T11:40:01.031Z,1033.84
2023-01-03T11:50:00.990Z,1033.68
2023-01-03T12:00:01.043Z,1033.76
2023-01-03T12:10:01.046Z,1033.66
2023-01-03T12:20:01.924Z,1033.74
2023-01-03T12:30:02.197Z,1033.71
2023-01-03T12:40:01.216Z,1033.74
2023-01-03T12:50:01.341Z,1033.54
2023-01-03T13:00:02.028Z,1033.65
2023-01-03T13:10:01.332Z,1033.68
2023-01-03T13:20:03.414Z,1033.62
2023-01-03T13:30:01.256Z,1033.18
2023-01-03T13:40:01.148Z,1033.29
2023-01-03T13:50:03.042Z,1033.35
2023-01-03T14:00:01.165Z,1033.23
2023-01-03T14:10:01.106Z,1033.41
2023-01-03T14:20:01.120Z,1033.45
2023-01-03T14:30:01.240Z,1033.50
2023-01-03T14:40:01.329Z,1033.62
2023-01-03T14:50:01.490Z,1033.62
2023-01-03T15:00:01.906Z,1033.63
2023-01-03T15:10:02.873Z,1033.71
2023-01-03T15:20:03.158Z,1033.78
2023-01-03T15:30:02.671Z,1033.86
2023-01-03T15:40:01.160Z,1033.93
2023-01-03T15:50:02.386Z,1033.94
2023-01-03T16:00:01.138Z,1034.06
2023-01-03T16:10:02.826Z,1034.08
2023-01-03T16:20:01.111Z,1034.06
2023-01-03T16:30:01.428Z,1034.04
2023-01-03T16:40:00.262Z,1034.05
2023-01-03T16:50:01.577Z,1034.07
2023-01-03T17:00:01.570Z,1034.24
2023-01-03T17:10:02.102Z,1034.22
2023-01-03T17:20:04.488Z,1034.31
2023-01-03T17:30:01.581Z,1034.28
2023-01-03T17:40:02.396Z,1034.33
2023-01-03T17:50:01.255Z,1034.34
2023-01-03T18:10:03.320Z,1034.31
2023-01-03T18:20:01.538Z,1034.25
2023-01-03T18:30:01.892Z,1034.28
2023-01-03T18:40:01.353Z,1034.36
2023-01-03T18:50:01.477Z,1034.36
2023-01-03T19:10:01.377Z,1034.56
2023-01-03T19:20:01.112Z,1034.59
2023-01-03T19:30:01.125Z,1034.48
2023-01-03T19:50:03.847Z,1034.27
2023-01-03T20:00:03.389Z,1034.21
2023-01-03T20:10:01.966Z,1034.15
2023-01-03T20:20:02.458Z,1034.17
2023-01-03T20:30:01.051Z,1034.04
2023-01-03T20:50:01.567Z,1033.85
2023-01-03T21:00:01.276Z,1033.84
2023-01-03T21:10:00.976Z,1033.79
2023-01-03T21:20:01.608Z,1033.71
2023-01-03T21:30:03.678Z,1033.57
2023-01-03T21:40:01.537Z,1033.41
2023-01-03T21:50:02.392Z,1033.44
2023-01-03T22:00:01.260Z,1033.45
2023-01-03T22:10:01.507Z,1033.41
2023-01-03T22:20:01.141Z,1033.31
2023-01-03T22:30:01.277Z,1033.13
2023-01-03T22:40:02.011Z,1033.20
2023-01-03T22:50:01.235Z,1033.05
2023-01-03T23:00:01.069Z,1033.04
2023-01-03T23:10:02.159Z,1032.91
2023-01-03T23:20:02.519Z,1032.87
2023-01-03T23:30:02.065Z,1032.71
2023-01-03T23:50:02.109Z,1032.50
